createdAt,value
2023-05-16T00:02:10.817Z,99.59
2023-05-16T00:04:38.303Z,99.34
2023-05-16T00:07:06.186Z,99.90
2023-05-16T00:09:33.684Z,100.00
2023-05-16T00:13:19.406Z,100.00
2023-05-16T00:15:47.396Z,100.00
2023-05-16T00:18:16.983Z,100.00
2023-05-16T00:20:44.701Z,100.00
2023-05-16T00:23:13.037Z,100.00
2023-05-16T00:25:40.835Z,100.00
2023-05-16T00:28:09.041Z,100.00
2023-05-16T00:30:36.462Z,100.00
2023-05-16T00:33:04.170Z,100.00
2023-05-16T00:35:31.724Z,99.88
2023-05-16T00:37:59.374Z,99.74
2023-05-16T00:40:27.321Z,100.00
2023-05-16T00:42:55.504Z,100.00
2023-05-16T00:45:22.960Z,100.00
2023-05-16T00:47:52.006Z,100.00
2023-05-16T00:50:19.887Z,100.00
2023-05-16T00:52:47.925Z,100.00
2023-05-16T00:55:15.642Z,100.00
2023-05-16T00:57:43.586Z,100.00
2023-05-16T01:00:12.682Z,100.00
2023-05-16T01:02:40.803Z,99.95
2023-05-16T01:05:09.438Z,98.63
2023-05-16T01:07:37.307Z,98.75
2023-05-16T01:10:06.713Z,98.86
2023-05-16T01:12:48.633Z,97.42
2023-05-16T01:15:31.454Z,96.80
2023-05-16T01:18:22.941Z,96.80
2023-05-16T01:21:04.157Z,97.49
2023-05-16T01:23:56.906Z,96.57
2023-05-16T01:26:28.230Z,97.17
2023-05-16T01:28:56.335Z,96.93
2023-05-16T01:31:24.727Z,97.98
2023-05-16T01:33:52.494Z,97.52
2023-05-16T01:36:44.411Z,97.72
2023-05-16T01:39:22.058Z,95.88
2023-05-16T01:42:08.042Z,97.09
2023-05-16T01:45:00.112Z,96.84
2023-05-16T01:47:33.299Z,96.81
2023-05-16T01:50:15.591Z,95.89
2023-05-16T01:52:58.749Z,94.81
2023-05-16T01:55:48.025Z,94.46
2023-05-16T01:58:19.340Z,93.78
2023-05-16T02:00:47.062Z,93.58
2023-05-16T02:03:14.708Z,93.86
2023-05-16T02:05:42.449Z,93.89
2023-05-16T02:08:10.001Z,93.37
2023-05-16T02:10:37.659Z,92.79
2023-05-16T02:13:05.139Z,93.58
2023-05-16T02:15:32.763Z,91.99
2023-05-16T02:18:00.341Z,92.58
2023-05-16T02:20:28.103Z,92.54
2023-05-16T02:22:56.073Z,92.42
2023-05-16T02:25:24.007Z,92.21
2023-05-16T02:27:51.406Z,91.76
2023-05-16T02:30:19.155Z,92.21
2023-05-16T02:32:46.685Z,91.64
2023-05-16T02:35:14.294Z,91.34
2023-05-16T02:37:42.704Z,91.01
2023-05-16T02:40:11.103Z,91.64
2023-05-16T02:42:39.249Z,91.71
2023-05-16T02:45:07.464Z,92.15
2023-05-16T02:47:37.571Z,90.00
2023-05-16T02:50:08.681Z,89.47
2023-05-16T02:52:37.947Z,89.65
2023-05-16T02:55:21.153Z,89.86
2023-05-16T02:57:51.730Z,91.08
2023-05-16T03:00:20.299Z,90.59
2023-05-16T03:02:47.847Z,91.48
2023-05-16T03:05:15.567Z,91.65
2023-05-16T03:07:42.897Z,91.13
2023-05-16T03:10:11.279Z,90.75
2023-05-16T03:12:38.667Z,90.92
2023-05-16T03:15:09.312Z,92.95
2023-05-16T03:17:36.784Z,92.83
2023-05-16T03:20:05.400Z,92.54
2023-05-16T03:22:32.759Z,92.61
2023-05-16T03:25:00.369Z,92.80
2023-05-16T03:27:28.127Z,91.83
2023-05-16T03:29:55.845Z,91.99
2023-05-16T03:32:23.235Z,92.18
2023-05-16T03:34:50.863Z,93.43
2023-05-16T03:37:18.181Z,92.71
2023-05-16T03:39:45.792Z,92.29
2023-05-16T03:42:13.153Z,93.08
2023-05-16T03:44:41.332Z,91.59
2023-05-16T03:47:08.657Z,91.79
2023-05-16T03:49:37.270Z,91.91
2023-05-16T03:52:05.907Z,91.83
2023-05-16T03:54:33.886Z,91.49
2023-05-16T03:57:01.638Z,90.66
2023-05-16T03:59:29.275Z,90.59
2023-05-16T04:01:56.658Z,89.85
2023-05-16T04:04:24.477Z,90.48
2023-05-16T04:06:51.826Z,89.97
2023-05-16T04:09:19.791Z,89.92
2023-05-16T04:11:47.260Z,89.44
2023-05-16T04:14:16.235Z,88.81
2023-05-16T04:16:43.763Z,88.78
2023-05-16T04:19:11.387Z,88.64
2023-05-16T04:21:38.720Z,88.59
2023-05-16T04:24:07.130Z,89.34
2023-05-16T04:26:34.647Z,88.78
2023-05-16T04:29:02.303Z,88.89
2023-05-16T04:31:29.718Z,88.97
2023-05-16T04:33:58.162Z,88.15
2023-05-16T04:36:25.499Z,88.39
2023-05-16T04:38:53.079Z,86.77
2023-05-16T04:41:20.479Z,86.62
2023-05-16T04:43:48.089Z,86.61
2023-05-16T04:46:18.772Z,87.27
2023-05-16T04:48:46.610Z,86.85
2023-05-16T04:51:13.930Z,88.37
2023-05-16T04:53:41.603Z,86.42
2023-05-16T04:56:08.994Z,86.46
2023-05-16T04:58:36.621Z,86.08
2023-05-16T05:01:04.512Z,86.10
2023-05-16T05:03:32.242Z,85.95
2023-05-16T05:05:59.577Z,87.92
2023-05-16T05:08:27.220Z,87.64
2023-05-16T05:10:56.608Z,87.98
2023-05-16T05:13:24.367Z,86.67
2023-05-16T05:15:52.487Z,86.32
2023-05-16T05:18:20.198Z,84.66
2023-05-16T05:20:47.938Z,84.24
2023-05-16T05:23:15.545Z,83.81
2023-05-16T05:25:42.979Z,83.23
2023-05-16T05:28:10.866Z,83.29
2023-05-16T05:30:39.257Z,83.27
2023-05-16T05:33:08.503Z,83.28
2023-05-16T05:35:35.887Z,83.08
2023-05-16T05:38:04.350Z,82.11
2023-05-16T05:40:31.693Z,81.87
2023-05-16T05:42:59.197Z,80.99
2023-05-16T05:45:26.873Z,80.04
2023-05-16T05:47:54.861Z,78.41
2023-05-16T05:50:22.379Z,76.73
2023-05-16T05:52:49.952Z,76.52
2023-05-16T05:55:17.326Z,74.09
2023-05-16T05:57:44.996Z,72.88
2023-05-16T06:00:12.988Z,72.93
2023-05-16T06:02:41.829Z,71.45
2023-05-16T06:05:10.659Z,71.44
2023-05-16T06:07:38.623Z,70.80
2023-05-16T06:10:08.635Z,69.64
2023-05-16T06:12:36.471Z,68.12
2023-05-16T06:15:04.608Z,68.36
2023-05-16T06:17:32.227Z,68.67
2023-05-16T06:19:59.630Z,68.85
2023-05-16T06:22:27.306Z,68.31
2023-05-16T06:24:54.612Z,65.88
2023-05-16T06:27:22.573Z,67.27
2023-05-16T06:29:49.820Z,66.47
2023-05-16T06:32:17.532Z,66.72
2023-05-16T06:34:44.939Z,64.54
2023-05-16T06:37:12.629Z,64.99
2023-05-16T06:39:39.892Z,65.37
2023-05-16T06:42:07.778Z,66.08
2023-05-16T06:44:35.266Z,66.67
2023-05-16T06:47:03.839Z,67.08
2023-05-16T06:49:31.360Z,67.17
2023-05-16T06:52:00.580Z,67.17
2023-05-16T06:54:28.096Z,66.63
2023-05-16T06:56:55.922Z,66.53
2023-05-16T06:59:24.247Z,66.11
2023-05-16T07:01:52.357Z,65.27
2023-05-16T07:04:19.909Z,65.33
2023-05-16T07:06:47.631Z,65.93
2023-05-16T07:09:17.314Z,65.62
2023-05-16T07:11:45.116Z,63.07
2023-05-16T07:14:12.943Z,62.38
2023-05-16T07:16:40.887Z,61.04
2023-05-16T07:19:08.649Z,59.86
2023-05-16T07:21:36.382Z,59.50
2023-05-16T07:24:04.246Z,58.02
2023-05-16T07:26:32.025Z,58.67
2023-05-16T07:28:59.435Z,57.79
2023-05-16T07:31:27.167Z,56.29
2023-05-16T07:33:54.624Z,55.27
2023-05-16T07:36:22.558Z,54.51
2023-05-16T07:38:50.033Z,53.55
2023-05-16T07:41:17.889Z,52.94
2023-05-16T07:43:45.377Z,52.96
2023-05-16T07:46:13.017Z,53.54
2023-05-16T07:48:40.504Z,52.86
2023-05-16T07:51:08.321Z,52.64
2023-05-16T07:53:35.767Z,51.66
2023-05-16T07:56:03.899Z,51.36
2023-05-16T07:58:31.462Z,51.54
2023-05-16T08:00:59.476Z,51.08
2023-05-16T08:03:27.310Z,49.95
2023-05-16T08:05:55.180Z,51.08
2023-05-16T08:08:22.847Z,50.72
2023-05-16T08:10:50.527Z,50.79
2023-05-16T08:13:17.932Z,51.05
2023-05-16T08:15:45.752Z,51.49
2023-05-16T08:18:15.663Z,51.26
2023-05-16T08:20:43.520Z,50.56
2023-05-16T08:23:10.980Z,48.41
2023-05-16T08:25:38.826Z,49.72
2023-05-16T08:28:06.411Z,49.53
2023-05-16T08:30:34.253Z,49.29
2023-05-16T08:33:05.225Z,48.18
2023-05-16T08:35:35.729Z,48.41
2023-05-16T08:38:03.481Z,46.80
2023-05-16T08:40:33.070Z,46.62
2023-05-16T08:43:02.445Z,46.68
2023-05-16T08:45:32.729Z,45.02
2023-05-16T08:48:03.882Z,45.37
2023-05-16T08:50:32.880Z,44.91
2023-05-16T08:53:08.150Z,44.83
2023-05-16T08:55:37.183Z,42.01
2023-05-16T08:58:05.558Z,42.31
2023-05-16T09:00:33.578Z,42.38
2023-05-16T09:03:01.598Z,41.41
2023-05-16T09:05:31.515Z,40.57
2023-05-16T09:07:59.590Z,41.78
2023-05-16T09:10:27.446Z,41.46
2023-05-16T09:12:54.847Z,39.65
2023-05-16T09:15:22.611Z,39.47
2023-05-16T09:17:50.630Z,39.98
2023-05-16T09:20:21.910Z,39.28
2023-05-16T09:22:56.270Z,39.54
2023-05-16T09:25:32.057Z,38.10
2023-05-16T09:28:02.748Z,38.79
2023-05-16T09:30:35.842Z,34.76
2023-05-16T09:33:04.309Z,29.13
2023-05-16T09:38:03.721Z,24.17
2023-05-16T09:40:31.813Z,22.38
2023-05-16T09:43:08.839Z,20.27
2023-05-16T09:45:41.761Z,18.59
2023-05-16T09:48:15.305Z,19.43
2023-05-16T09:50:52.645Z,17.21
2023-05-16T09:53:32.567Z,18.15
2023-05-16T09:56:11.334Z,17.40
2023-05-16T09:58:41.725Z,17.61
2023-05-16T10:01:11.231Z,21.05
2023-05-16T10:03:42.557Z,23.28
2023-05-16T10:06:12.947Z,22.59
2023-05-16T10:08:43.424Z,22.88
2023-05-16T10:11:12.483Z,23.57
2023-05-16T10:13:49.443Z,23.25
2023-05-16T10:16:18.847Z,25.20
2023-05-16T10:18:46.561Z,26.73
2023-05-16T10:21:18.211Z,26.06
2023-05-16T10:23:52.633Z,25.14
2023-05-16T10:26:22.716Z,23.19
2023-05-16T10:28:51.941Z,22.93
2023-05-16T10:31:19.872Z,23.79
2023-05-16T10:33:48.183Z,23.31
2023-05-16T10:36:17.651Z,22.77
2023-05-16T10:38:47.400Z,24.00
2023-05-16T10:41:16.800Z,24.87
2023-05-16T10:43:56.937Z,25.86
2023-05-16T10:46:27.169Z,26.48
2023-05-16T10:48:56.515Z,25.79
2023-05-16T10:51:38.889Z,26.72
2023-05-16T10:54:15.021Z,27.15
2023-05-16T10:56:43.637Z,27.68
2023-05-16T10:59:26.154Z,27.61
2023-05-16T11:01:56.547Z,27.75
2023-05-16T11:04:24.232Z,27.58
2023-05-16T11:06:54.037Z,28.54
2023-05-16T11:09:26.857Z,27.98
2023-05-16T11:11:59.757Z,27.62
2023-05-16T11:14:47.786Z,27.99
2023-05-16T11:17:24.082Z,29.29
2023-05-16T11:20:02.212Z,29.57
2023-05-16T11:22:35.667Z,30.02
2023-05-16T11:25:08.551Z,30.84
2023-05-16T11:27:44.875Z,30.94
2023-05-16T11:30:14.627Z,30.79
2023-05-16T11:32:45.882Z,30.76
2023-05-16T11:35:17.200Z,31.07
2023-05-16T11:37:47.902Z,31.45
2023-05-16T11:40:17.455Z,31.73
2023-05-16T11:42:48.546Z,32.36
2023-05-16T11:45:23.087Z,32.48
2023-05-16T11:47:50.938Z,32.55
2023-05-16T11:50:22.277Z,31.41
2023-05-16T11:52:53.999Z,30.58
2023-05-16T11:55:41.251Z,31.03
2023-05-16T11:58:12.340Z,32.11
2023-05-16T12:00:50.026Z,31.64
2023-05-16T12:03:20.764Z,32.11
2023-05-16T12:05:56.007Z,33.11
2023-05-16T12:08:24.935Z,32.96
2023-05-16T12:10:54.083Z,32.95
2023-05-16T12:13:24.675Z,34.14
2023-05-16T12:15:53.069Z,34.75
2023-05-16T12:18:24.564Z,34.99
2023-05-16T12:20:52.534Z,35.80
2023-05-16T12:23:20.221Z,36.34
2023-05-16T12:25:49.531Z,37.20
2023-05-16T12:28:17.531Z,36.72
2023-05-16T12:30:48.186Z,37.95
2023-05-16T12:33:17.488Z,39.00
2023-05-16T12:35:47.852Z,39.32
2023-05-16T12:38:18.054Z,38.58
2023-05-16T12:40:46.590Z,38.46
2023-05-16T12:43:21.581Z,38.66
2023-05-16T12:45:58.523Z,39.04
2023-05-16T12:48:35.434Z,38.68
2023-05-16T12:51:18.772Z,38.99
2023-05-16T12:54:05.607Z,39.23
2023-05-16T12:56:42.141Z,40.19
2023-05-16T12:59:10.103Z,40.21
2023-05-16T13:01:38.068Z,39.81
2023-05-16T13:04:06.013Z,40.17
2023-05-16T13:06:49.034Z,40.44
2023-05-16T13:09:21.476Z,40.45
2023-05-16T13:11:48.954Z,40.60
2023-05-16T13:14:17.950Z,41.54
2023-05-16T13:16:45.628Z,41.70
2023-05-16T13:19:13.524Z,41.49
2023-05-16T13:21:40.937Z,41.99
2023-05-16T13:24:08.714Z,41.50
2023-05-16T13:26:35.987Z,41.35
2023-05-16T13:29:03.557Z,41.70
2023-05-16T13:31:31.012Z,42.31
2023-05-16T13:33:59.136Z,42.43
2023-05-16T13:36:26.970Z,42.16
2023-05-16T13:38:55.172Z,42.57
2023-05-16T13:41:22.489Z,43.36
2023-05-16T13:43:50.065Z,43.79
2023-05-16T13:46:17.462Z,44.21
2023-05-16T13:48:45.130Z,45.23
2023-05-16T13:51:13.665Z,47.17
2023-05-16T13:53:41.406Z,49.40
2023-05-16T13:56:08.757Z,50.75
2023-05-16T13:58:45.838Z,52.41
2023-05-16T14:01:24.694Z,53.62
2023-05-16T14:03:52.418Z,54.29
2023-05-16T14:06:19.762Z,57.65
2023-05-16T14:08:47.497Z,57.57
2023-05-16T14:11:15.258Z,58.99
2023-05-16T14:13:42.886Z,59.79
2023-05-16T14:16:10.411Z,60.85
2023-05-16T14:18:38.112Z,60.69
2023-05-16T14:21:05.763Z,60.50
2023-05-16T14:23:33.766Z,61.07
2023-05-16T14:26:01.921Z,61.81
2023-05-16T14:28:32.822Z,62.10
2023-05-16T14:31:01.810Z,61.70
2023-05-16T14:33:29.549Z,61.71
2023-05-16T14:35:56.828Z,62.90
2023-05-16T14:38:24.683Z,64.25
2023-05-16T14:40:51.991Z,63.88
2023-05-16T14:43:19.649Z,63.92
2023-05-16T14:45:46.986Z,63.84
2023-05-16T14:48:14.717Z,63.88
2023-05-16T14:50:42.125Z,63.79
2023-05-16T14:53:09.889Z,64.60
2023-05-16T14:55:37.412Z,67.25
2023-05-16T14:58:06.201Z,65.65
2023-05-16T15:00:33.871Z,65.85
2023-05-16T15:03:01.615Z,65.59
2023-05-16T15:05:29.736Z,65.41
2023-05-16T15:07:57.769Z,66.51
2023-05-16T15:10:25.666Z,67.28
2023-05-16T15:12:53.805Z,66.82
2023-05-16T15:15:21.206Z,67.62
2023-05-16T15:17:48.940Z,67.79
2023-05-16T15:20:16.413Z,66.62
2023-05-16T15:22:44.051Z,67.40
2023-05-16T15:25:12.563Z,67.87
2023-05-16T15:27:40.292Z,68.82
2023-05-16T15:30:08.814Z,69.86
2023-05-16T15:32:36.630Z,71.20
2023-05-16T15:35:06.260Z,72.12
2023-05-16T15:37:33.985Z,72.62
2023-05-16T15:40:01.540Z,72.69
2023-05-16T15:42:29.567Z,74.06
2023-05-16T15:44:57.000Z,74.66
2023-05-16T15:47:26.314Z,75.22
2023-05-16T15:49:53.778Z,76.56
2023-05-16T15:52:22.796Z,77.58
2023-05-16T15:54:50.626Z,78.13
2023-05-16T15:57:19.307Z,79.18
2023-05-16T15:59:46.997Z,80.67
2023-05-16T16:02:14.710Z,81.19
2023-05-16T16:04:42.602Z,82.01
2023-05-16T16:07:11.497Z,83.16
2023-05-16T16:09:39.008Z,84.51
2023-05-16T16:12:07.485Z,84.09
2023-05-16T16:14:35.158Z,84.79
2023-05-16T16:17:04.042Z,85.16
2023-05-16T16:19:34.618Z,84.20
2023-05-16T16:22:02.449Z,84.91
2023-05-16T16:24:29.840Z,84.86
2023-05-16T16:26:57.508Z,84.11
2023-05-16T16:29:26.214Z,84.59
2023-05-16T16:31:53.813Z,83.82
2023-05-16T16:34:23.248Z,84.54
2023-05-16T16:36:51.147Z,84.94
2023-05-16T16:39:18.529Z,86.02
2023-05-16T16:41:46.200Z,85.55
2023-05-16T16:44:13.997Z,85.56
2023-05-16T16:46:41.744Z,85.32
2023-05-16T16:49:09.088Z,85.48
2023-05-16T16:51:36.913Z,85.73
2023-05-16T16:54:04.366Z,85.52
2023-05-16T16:56:32.126Z,85.25
2023-05-16T16:58:59.586Z,84.79
2023-05-16T17:01:29.872Z,84.99
2023-05-16T17:03:58.489Z,84.45
2023-05-16T17:06:26.706Z,84.36
2023-05-16T17:08:54.228Z,84.99
2023-05-16T17:11:23.662Z,85.58
2023-05-16T17:13:51.455Z,85.39
2023-05-16T17:16:19.219Z,85.75
2023-05-16T17:18:46.688Z,85.64
2023-05-16T17:21:14.297Z,85.49
2023-05-16T17:23:44.037Z,85.26
2023-05-16T17:26:13.863Z,86.22
2023-05-16T17:28:41.820Z,85.82
2023-05-16T17:31:09.453Z,85.86
2023-05-16T17:33:36.777Z,85.43
2023-05-16T17:36:04.914Z,85.65
2023-05-16T17:38:33.474Z,85.94
2023-05-16T17:41:01.994Z,85.46
2023-05-16T17:43:31.209Z,86.19
2023-05-16T17:45:59.044Z,85.77
2023-05-16T17:48:27.978Z,85.79
2023-05-16T17:50:56.109Z,85.80
2023-05-16T17:53:23.959Z,85.64
2023-05-16T17:55:51.881Z,85.87
2023-05-16T17:58:19.210Z,85.43
2023-05-16T18:00:47.137Z,85.46
2023-05-16T18:03:15.900Z,85.43
2023-05-16T18:05:43.823Z,85.76
2023-05-16T18:08:11.430Z,85.95
2023-05-16T18:10:51.016Z,86.91
2023-05-16T18:13:19.849Z,87.42
2023-05-16T18:15:47.840Z,87.46
2023-05-16T18:18:15.236Z,87.73
2023-05-16T18:20:43.166Z,87.83
2023-05-16T18:23:10.895Z,87.46
2023-05-16T18:25:38.603Z,87.32
2023-05-16T18:28:06.966Z,87.45
2023-05-16T18:30:37.062Z,87.38
2023-05-16T18:33:06.625Z,87.58
2023-05-16T18:35:34.572Z,87.27
2023-05-16T18:38:04.185Z,87.62
2023-05-16T18:40:31.960Z,87.57
2023-05-16T18:42:59.447Z,87.59
2023-05-16T18:45:30.336Z,87.04
2023-05-16T18:47:57.924Z,87.07
2023-05-16T18:50:26.374Z,88.07
2023-05-16T18:52:57.688Z,87.33
2023-05-16T18:55:25.601Z,87.63
2023-05-16T18:57:53.197Z,87.88
2023-05-16T19:00:21.033Z,87.98
2023-05-16T19:02:48.452Z,88.44
2023-05-16T19:05:16.517Z,88.89
2023-05-16T19:07:44.002Z,88.71
2023-05-16T19:10:12.015Z,88.81
2023-05-16T19:12:40.660Z,88.44
2023-05-16T19:15:09.698Z,88.98
2023-05-16T19:17:37.139Z,88.51
2023-05-16T19:20:05.850Z,89.02
2023-05-16T19:22:33.239Z,88.79
2023-05-16T19:25:00.923Z,89.42
2023-05-16T19:27:32.148Z,90.15
2023-05-16T19:29:59.856Z,89.63
2023-05-16T19:32:27.311Z,89.74
2023-05-16T19:34:55.201Z,89.66
2023-05-16T19:37:22.687Z,91.16
2023-05-16T19:39:50.356Z,91.21
2023-05-16T19:42:17.687Z,90.26
2023-05-16T19:44:45.433Z,90.15
2023-05-16T19:47:12.879Z,90.47
2023-05-16T19:49:40.710Z,90.30
2023-05-16T19:52:09.300Z,90.86
2023-05-16T19:54:37.073Z,91.32
2023-05-16T19:57:05.240Z,91.97
2023-05-16T19:59:33.043Z,94.08
2023-05-16T20:02:00.452Z,94.22
2023-05-16T20:04:28.209Z,93.76
2023-05-16T20:06:56.035Z,93.49
2023-05-16T20:09:23.741Z,93.34
2023-05-16T20:11:53.654Z,93.37
2023-05-16T20:14:21.465Z,93.58
2023-05-16T20:16:48.827Z,93.74
2023-05-16T20:19:19.277Z,94.46
2023-05-16T20:21:46.876Z,95.47
2023-05-16T20:24:15.372Z,94.96
2023-05-16T20:26:42.732Z,95.45
2023-05-16T20:29:11.206Z,96.42
2023-05-16T20:31:38.586Z,95.99
2023-05-16T20:34:06.427Z,95.96
2023-05-16T20:36:34.113Z,96.47
2023-05-16T20:39:01.952Z,97.72
2023-05-16T20:41:29.356Z,96.04
2023-05-16T20:43:57.053Z,95.80
2023-05-16T20:46:24.690Z,95.46
2023-05-16T20:48:52.665Z,95.54
2023-05-16T20:51:20.110Z,94.35
2023-05-16T20:53:47.986Z,93.96
2023-05-16T20:56:15.442Z,93.78
2023-05-16T20:58:43.818Z,93.83
2023-05-16T21:01:14.174Z,94.29
2023-05-16T21:03:42.082Z,95.51
2023-05-16T21:06:09.735Z,94.49
2023-05-16T21:08:37.752Z,95.78
2023-05-16T21:11:05.203Z,94.06
2023-05-16T21:13:32.906Z,93.70
2023-05-16T21:16:00.591Z,94.26
2023-05-16T21:18:28.371Z,95.34
2023-05-16T21:20:55.788Z,95.82
2023-05-16T21:23:23.491Z,96.85
2023-05-16T21:25:50.904Z,95.69
2023-05-16T21:28:18.568Z,96.88
2023-05-16T21:30:46.080Z,96.45
2023-05-16T21:33:13.773Z,96.11
2023-05-16T21:35:41.272Z,97.13
2023-05-16T21:38:09.100Z,97.69
2023-05-16T21:40:36.673Z,98.77
2023-05-16T21:43:04.580Z,98.51
2023-05-16T21:45:32.991Z,98.59
2023-05-16T21:48:00.923Z,98.76
2023-05-16T21:50:28.484Z,97.85
2023-05-16T21:52:56.270Z,96.75
2023-05-16T21:55:23.698Z,96.20
2023-05-16T21:57:51.365Z,97.21
2023-05-16T22:00:19.092Z,95.87
2023-05-16T22:02:48.692Z,96.43
2023-05-16T22:05:19.243Z,96.01
2023-05-16T22:07:47.030Z,96.98
2023-05-16T22:10:15.164Z,98.03
2023-05-16T22:12:42.880Z,95.99
2023-05-16T22:15:10.930Z,96.04
2023-05-16T22:17:38.743Z,97.29
2023-05-16T22:20:07.509Z,96.87
2023-05-16T22:22:35.189Z,97.32
2023-05-16T22:25:04.737Z,95.73
2023-05-16T22:27:32.593Z,95.73
2023-05-16T22:30:06.248Z,95.94
2023-05-16T22:32:35.141Z,96.38
2023-05-16T22:35:02.516Z,96.26
2023-05-16T22:37:30.668Z,96.00
2023-05-16T22:39:58.119Z,96.38
2023-05-16T22:42:26.203Z,95.55
2023-05-16T22:44:53.693Z,96.66
2023-05-16T22:47:21.713Z,95.96
2023-05-16T22:49:49.327Z,95.90
2023-05-16T22:52:17.045Z,96.04
2023-05-16T22:54:44.358Z,95.18
2023-05-16T22:57:12.034Z,94.79
2023-05-16T22:59:39.380Z,94.82
2023-05-16T23:02:09.772Z,94.70
2023-05-16T23:04:37.112Z,94.29
2023-05-16T23:07:05.232Z,94.62
2023-05-16T23:09:32.713Z,94.38
2023-05-16T23:12:00.980Z,94.35
2023-05-16T23:14:28.524Z,94.30
2023-05-16T23:16:56.150Z,93.84
2023-05-16T23:19:23.786Z,93.96
2023-05-16T23:21:51.636Z,93.86
2023-05-16T23:24:20.139Z,93.65
2023-05-16T23:26:47.765Z,93.55
2023-05-16T23:29:15.124Z,93.45
2023-05-16T23:31:42.832Z,93.32
2023-05-16T23:34:10.264Z,92.93
2023-05-16T23:36:37.908Z,93.35
2023-05-16T23:39:05.348Z,93.05
2023-05-16T23:41:33.091Z,93.00
2023-05-16T23:44:00.595Z,92.73
2023-05-16T23:46:28.226Z,92.40
2023-05-16T23:48:57.316Z,92.80
2023-05-16T23:51:25.121Z,92.27
2023-05-16T23:53:52.516Z,92.57
2023-05-16T23:56:20.159Z,92.27
2023-05-16T23:58:49.074Z,92.36
